Valor — WDD8691 — position and weather

sailwx.info

Track history (hours):
 
Tides and Currents Weather Stations Pressure Air Temp Water Temp Dewpoint Dewpoint Depression Visibility Wind Speed Wind Dir Waves Ship Positions

Valor

Owner: Crowley Marine Services, Seattle, WA. More information available from US FCC via Universal Licensing System and Coast Guard Vessel Documentation Center.

Last reported at 2018-Jun-22 05:28 UTC. Time now 2018-Jun-22 05:40 UTC.
Position N 37°60' W 122°25'.

Length 8 m; draft 5.5 m.

Type: Tug. MMSI: 367301480.

Date/timePositionNaut miles runAvg speedWind from/ knotsBaromVisibWave heightAir tempDewpointWater temp
2018-Jun-22 05:28N 37°60' W 122°25'4 8.9
2018-Jun-22 05:00N 38°02' W 122°21'4 7.8
2018-Jun-22 04:30N 38°03' W 122°16'0 0.1
2018-Jun-22 04:00N 38°03' W 122°16'0 0.8
2018-Jun-22 03:30N 38°04' W 122°16'710.1
2018-Jun-22 02:47N 38°01' W 122°25'312.2
2018-Jun-22 02:30N 37°58' W 122°27'510.8
2018-Jun-22 02:00N 37°53' W 122°25'4 8.7
2018-Jun-22 01:30N 37°48' W 122°23'4 8.7
2018-Jun-22 01:00N 37°45' W 122°21'2 3.5
2018-Jun-22 00:30N 37°43' W 122°20'0 0.0
2018-Jun-22 00:00N 37°43' W 122°20'611.9
2018-Jun-21 23:30N 37°48' W 122°24'0 0.4
2018-Jun-21 23:00N 37°48' W 122°24'0 0.0
2018-Jun-21 22:30N 37°48' W 122°24'0 0.0
2018-Jun-21 22:01N 37°48' W 122°24'0 0.0
2018-Jun-21 21:30N 37°48' W 122°24'1 1.6
2018-Jun-21 21:00N 37°49' W 122°24'4 8.4
2018-Jun-21 20:30N 37°49' W 122°30'0 0.7
2018-Jun-21 20:00N 37°49' W 122°30'510.0
2018-Jun-21 19:30N 37°51' W 122°25'4 7.8
2018-Jun-21 19:00N 37°55' W 122°25'2 4.9
2018-Jun-21 18:30N 37°55' W 122°22'0 0.5
2018-Jun-21 18:01N 37°55' W 122°22'0 0.3
2018-Jun-21 17:30N 37°55' W 122°22'0 0.0
2018-Jun-21 16:59N 37°55' W 122°22'0 0.0
2018-Jun-21 16:30N 37°55' W 122°22'0 0.7
2018-Jun-21 16:00N 37°54' W 122°22'4 7.2
2018-Jun-21 15:30N 37°56' W 122°26'4 8.2
2018-Jun-21 14:59N 38°00' W 122°24'4 8.1
2018-Jun-21 14:30N 38°03' W 122°20'5 8.2
2018-Jun-21 13:50N 38°04' W 122°13'4 2.5
2018-Jun-21 12:16N 38°02' W 122°09'0 0.8
2018-Jun-21 11:59N 38°02' W 122°09'1 0.1
2018-Jun-21 07:39N 38°02' W 122°08'1 3.6
2018-Jun-21 07:30N 38°02' W 122°08'0 0.0
2018-Jun-21 07:00N 38°02' W 122°08'1 1.7
2018-Jun-21 06:30N 38°02' W 122°09'1 0.2
2018-Jun-21 02:35N 38°02' W 122°08'0 0.6
2018-Jun-21 02:19N 38°02' W 122°08'0 0.0
2018-Jun-21 02:00N 38°02' W 122°08'0 0.0
2018-Jun-21 01:28N 38°02' W 122°08'3 3.3
2018-Jun-21 00:41N 38°03' W 122°11'210.8
2018-Jun-21 00:27N 38°04' W 122°14'712.4
2018-Jun-20 23:53N 38°02' W 122°22'513.2
2018-Jun-20 23:28N 37°58' W 122°27'613.2
2018-Jun-20 23:00N 37°52' W 122°25'610.9
2018-Jun-20 22:30N 37°46' W 122°22'3 5.1
2018-Jun-20 22:00N 37°44' W 122°21'1 2.5
2018-Jun-20 21:30N 37°45' W 122°22'3 6.8
2018-Jun-20 21:00N 37°48' W 122°24'0 0.1
2018-Jun-20 20:30N 37°48' W 122°24'0 0.0
2018-Jun-20 20:00N 37°48' W 122°24'0 0.0
2018-Jun-20 19:30N 37°48' W 122°24'0 0.0
2018-Jun-20 19:00N 37°48' W 122°24'0 0.0
2018-Jun-20 18:30N 37°48' W 122°24'0 0.0
2018-Jun-20 18:00N 37°48' W 122°24'0 0.0
2018-Jun-20 17:30N 37°48' W 122°24'1 1.4
2018-Jun-20 17:00N 37°49' W 122°24'4 8.9
2018-Jun-20 16:30N 37°53' W 122°25'610.8
2018-Jun-20 15:59N 37°59' W 122°25'5 9.8
2018-Jun-20 15:30N 38°02' W 122°21'10 2.4
2018-Jun-20 11:17N 38°02' W 122°08'2 4.0
2018-Jun-20 10:52N 38°02' W 122°10'3 7.9
2018-Jun-20 10:30N 38°04' W 122°14'4 8.4
2018-Jun-20 10:00N 38°03' W 122°19'5 8.9
2018-Jun-20 09:25N 38°01' W 122°25'5 8.9
2018-Jun-20 08:53N 37°56' W 122°27'3 8.2
2018-Jun-20 08:30N 37°53' W 122°26'3 5.6
2018-Jun-20 08:00N 37°50' W 122°27'4 7.7
2018-Jun-20 07:31N 37°48' W 122°31'1 1.6
2018-Jun-20 07:00N 37°48' W 122°30'1 1.7
2018-Jun-20 06:30N 37°49' W 122°29'4 8.0
2018-Jun-20 06:00N 37°49' W 122°24'0 0.9
2018-Jun-20 05:30N 37°48' W 122°24'0 0.0
2018-Jun-20 05:00N 37°48' W 122°24'0 0.0
2018-Jun-20 04:30N 37°48' W 122°24'2 4.9
2018-Jun-20 04:00N 37°51' W 122°24'5 9.4
2018-Jun-20 03:30N 37°55' W 122°25'0 0.6
2018-Jun-20 03:00N 37°55' W 122°25'3 5.6
2018-Jun-20 02:30N 37°52' W 122°25'3 6.4
2018-Jun-20 02:00N 37°50' W 122°28'3 5.9
2018-Jun-20 01:30N 37°48' W 122°30'0 0.6
2018-Jun-20 01:00N 37°48' W 122°30'1 2.9
2018-Jun-20 00:30N 37°49' W 122°28'3 6.7
2018-Jun-20 00:00N 37°49' W 122°24'1 1.4
2018-Jun-19 23:28N 37°48' W 122°24'0 0.0
2018-Jun-19 23:00N 37°48' W 122°24'0 0.0
2018-Jun-19 22:30N 37°48' W 122°24'0 0.0
2018-Jun-19 22:00N 37°48' W 122°24'0 0.0
2018-Jun-19 21:30N 37°48' W 122°24'0 0.0
2018-Jun-19 21:00N 37°48' W 122°24'0 0.0
2018-Jun-19 20:30N 37°48' W 122°24'0 0.0
2018-Jun-19 20:00N 37°48' W 122°24'0 0.0
2018-Jun-19 19:30N 37°48' W 122°24'2 3.3
2018-Jun-19 19:00N 37°50' W 122°24'5 9.6
2018-Jun-19 18:28N 37°55' W 122°25'510.2
2018-Jun-19 17:59N 37°60' W 122°25'9 2.2
2018-Jun-19 13:55N 38°03' W 122°15'1 0.3
2018-Jun-19 10:39N 38°04' W 122°14'311.9
2018-Jun-19 10:25N 38°03' W 122°17'2 3.7
2018-Jun-19 09:53N 38°03' W 122°15'0 0.0
2018-Jun-19 09:30N 38°03' W 122°15'0 0.0
2018-Jun-19 08:41N 38°03' W 122°15'0 0.0
2018-Jun-19 08:13N 38°03' W 122°15'0 0.0
2018-Jun-19 08:00N 38°03' W 122°15'0 0.0
2018-Jun-19 07:29N 38°03' W 122°15'0 0.0
2018-Jun-19 06:59N 38°03' W 122°15'0 0.0
2018-Jun-19 06:30N 38°03' W 122°15'0 0.0
2018-Jun-19 05:47N 38°03' W 122°15'0 0.0
2018-Jun-19 04:13N 38°03' W 122°15'0 0.0
2018-Jun-19 04:00N 38°03' W 122°15'0 0.0
2018-Jun-19 03:30N 38°03' W 122°15'0 0.0
2018-Jun-19 02:52N 38°03' W 122°15'3 7.2
2018-Jun-19 02:29N 38°03' W 122°18'5 9.8
2018-Jun-19 01:56N 38°01' W 122°24'4 9.5
2018-Jun-19 01:29N 37°56' W 122°26'510.2
2018-Jun-19 01:00N 37°52' W 122°24'4 8.6
2018-Jun-19 00:30N 37°48' W 122°21'1 2.4
2018-Jun-19 00:00N 37°48' W 122°19'2 4.9
2018-Jun-18 23:30N 37°48' W 122°22'0 1.0
2018-Jun-18 23:01N 37°47' W 122°23'1 2.5
2018-Jun-18 22:30N 37°48' W 122°24'3 6.1
2018-Jun-18 22:00N 37°46' W 122°21'3 6.7
2018-Jun-18 21:30N 37°43' W 122°20'1 2.2
2018-Jun-18 21:00N 37°44' W 122°21'510.6
2018-Jun-18 20:30N 37°48' W 122°24'5 9.8
2018-Jun-18 20:00N 37°48' W 122°30'1 1.2
2018-Jun-18 19:30N 37°48' W 122°30'0 0.1
2018-Jun-18 19:00N 37°48' W 122°30'1 2.5
2018-Jun-18 18:30N 37°49' W 122°29'4 7.6
2018-Jun-18 18:00N 37°49' W 122°24'0 1.0
2018-Jun-18 17:30N 37°48' W 122°24'0 0.0
2018-Jun-18 16:58N 37°48' W 122°24'0 0.0
2018-Jun-18 16:30N 37°48' W 122°24'0 0.0
2018-Jun-18 15:59N 37°48' W 122°24'0 0.0
2018-Jun-18 15:30N 37°48' W 122°24'0 0.0
2018-Jun-18 15:00N 37°48' W 122°24'0 0.0
2018-Jun-18 14:30N 37°48' W 122°24'0 0.0
2018-Jun-18 14:00N 37°48' W 122°24'0 0.0
2018-Jun-18 13:28N 37°48' W 122°24'0 0.0
2018-Jun-18 12:50N 37°48' W 122°24'0 0.0
2018-Jun-18 12:27N 37°48' W 122°24'0 0.0
2018-Jun-18 11:57N 37°48' W 122°24'0 0.0
2018-Jun-18 11:24N 37°48' W 122°24'0 0.0
2018-Jun-18 10:58N 37°48' W 122°24'0 0.0
2018-Jun-18 10:30N 37°48' W 122°24'0 0.0
2018-Jun-18 10:00N 37°48' W 122°24'0 0.9
2018-Jun-18 09:30N 37°48' W 122°23'2 4.3
2018-Jun-18 08:59N 37°48' W 122°20'0 0.3
2018-Jun-18 08:30N 37°48' W 122°20'3 5.6
2018-Jun-18 08:01N 37°48' W 122°24'0 0.1
2018-Jun-18 07:30N 37°48' W 122°24'0 0.0
2018-Jun-18 06:57N 37°48' W 122°24'0 0.0
2018-Jun-18 06:26N 37°48' W 122°24'0 0.0
2018-Jun-18 05:59N 37°48' W 122°24'0 0.0
2018-Jun-18 05:29N 37°48' W 122°24'0 0.0
2018-Jun-18 04:24N 37°48' W 122°24'0 0.0
2018-Jun-18 03:58N 37°48' W 122°24'0 0.0
2018-Jun-18 03:29N 37°48' W 122°24'0 0.0
2018-Jun-18 03:00N 37°48' W 122°24'0 0.0
2018-Jun-18 02:30N 37°48' W 122°24'0 0.0
2018-Jun-18 02:00N 37°48' W 122°24'0 0.0
2018-Jun-18 01:30N 37°48' W 122°24'0 0.0
2018-Jun-18 01:00N 37°48' W 122°24'0 0.0
2018-Jun-18 00:30N 37°48' W 122°24'0 0.0
2018-Jun-18 00:00N 37°48' W 122°24'0 0.0
2018-Jun-17 23:30N 37°48' W 122°24'0 0.0
2018-Jun-17 23:00N 37°48' W 122°24'0 0.0
2018-Jun-17 22:29N 37°48' W 122°24'4 8.7
2018-Jun-17 22:00N 37°49' W 122°29'1 2.6
2018-Jun-17 21:30N 37°49' W 122°31'2 4.7
2018-Jun-17 21:00N 37°50' W 122°28'3 6.9
2018-Jun-17 20:30N 37°52' W 122°25'3 6.7
2018-Jun-17 20:00N 37°55' W 122°25'0 0.1
2018-Jun-17 19:28N 37°56' W 122°25'0 0.7
2018-Jun-17 19:00N 37°55' W 122°25'0 0.1
2018-Jun-17 18:13N 37°55' W 122°25'0 0.0
2018-Jun-17 15:08N 37°55' W 122°25'0 0.0
2018-Jun-17 13:56N 37°55' W 122°25'4 8.9
2018-Jun-17 13:27N 37°60' W 122°25'510.3
2018-Jun-17 12:56N 38°03' W 122°20'5 1.5
2018-Jun-17 09:40N 38°04' W 122°13'1 0.6
2018-Jun-17 07:42N 38°03' W 122°15'1 0.6
2018-Jun-17 06:02N 38°04' W 122°13'3 1.0
2018-Jun-17 03:21N 38°03' W 122°10'2 1.7
2018-Jun-17 02:19N 38°02' W 122°08'0 0.9
2018-Jun-17 01:59N 38°02' W 122°08'0 0.0
2018-Jun-16 05:41N 38°02' W 122°08'1 2.8
2018-Jun-16 05:30N 38°02' W 122°09'0 0.3
2018-Jun-16 05:00N 38°02' W 122°09'2 0.2
2018-Jun-15 21:30N 38°03' W 122°11'6 8.8
2018-Jun-15 20:50N 38°03' W 122°18'6 9.9
2018-Jun-15 20:14N 38°00' W 122°24'410.3
2018-Jun-15 19:49N 37°56' W 122°27'3 9.6
2018-Jun-15 19:30N 37°54' W 122°26'3 6.0
2018-Jun-15 19:00N 37°51' W 122°27'4 7.3
2018-Jun-15 18:30N 37°48' W 122°30'0 0.7
2018-Jun-15 18:00N 37°48' W 122°30'2 3.0
2018-Jun-15 17:30N 37°49' W 122°28'3 6.1
2018-Jun-15 17:00N 37°49' W 122°24'1 1.1
2018-Jun-15 16:30N 37°48' W 122°24'0 0.0
2018-Jun-15 16:00N 37°48' W 122°24'0 0.0
2018-Jun-15 15:30N 37°48' W 122°24'0 0.0
2018-Jun-15 14:59N 37°48' W 122°24'0 0.0
2018-Jun-15 14:30N 37°48' W 122°24'0 0.2
2018-Jun-15 14:00N 37°48' W 122°24'0 0.6
2018-Jun-15 13:30N 37°49' W 122°24'2 3.2
2018-Jun-15 13:00N 37°49' W 122°26'2 3.6
2018-Jun-15 12:30N 37°48' W 122°24'0 0.0
2018-Jun-15 12:00N 37°48' W 122°24'0 0.0
2018-Jun-15 11:30N 37°48' W 122°24'0 0.0
2018-Jun-15 11:00N 37°48' W 122°24'0 0.0
2018-Jun-15 10:26N 37°48' W 122°24'0 0.0
2018-Jun-15 10:00N 37°48' W 122°24'0 0.1
2018-Jun-15 09:30N 37°48' W 122°24'5 8.8
2018-Jun-15 09:00N 37°53' W 122°25'3 5.7
2018-Jun-15 08:28N 37°56' W 122°25'0 0.0
2018-Jun-15 08:00N 37°56' W 122°25'1 1.5
2018-Jun-15 07:30N 37°55' W 122°25'1 1.3
2018-Jun-15 07:00N 37°54' W 122°25'0 1.0
2018-Jun-15 06:30N 37°54' W 122°25'3 6.3
2018-Jun-15 06:00N 37°57' W 122°26'3 6.4
2018-Jun-15 05:30N 37°60' W 122°25'3 6.7
2018-Jun-15 05:00N 38°02' W 122°21'6 8.6
2018-Jun-15 04:20N 38°04' W 122°14'510.0
2018-Jun-15 03:51N 38°02' W 122°09'0 1.4
2018-Jun-15 03:30N 38°02' W 122°08'0 0.0
2018-Jun-15 02:46N 38°02' W 122°08'0 0.0
2018-Jun-15 02:25N 38°02' W 122°08'1 0.6
2018-Jun-15 01:35N 38°02' W 122°08'0 0.0
2018-Jun-15 01:27N 38°02' W 122°08'0 0.0
2018-Jun-15 00:54N 38°02' W 122°08'0 0.0
2018-Jun-15 00:30N 38°02' W 122°08'0 0.0
2018-Jun-14 23:57N 38°02' W 122°08'0 0.0
2018-Jun-14 23:30N 38°02' W 122°08'0 0.0
2018-Jun-14 22:57N 38°02' W 122°08'1 0.0
2018-Jun-13 16:30N 38°02' W 122°09'1 0.2
2018-Jun-13 10:58N 38°02' W 122°08'0 0.0
2018-Jun-13 09:55N 38°02' W 122°08'0 0.0
2018-Jun-13 09:30N 38°02' W 122°08'0 0.0
2018-Jun-13 09:00N 38°02' W 122°08'1 0.9
2018-Jun-13 08:26N 38°02' W 122°08'0 0.0
2018-Jun-13 07:55N 38°02' W 122°08'0 0.2
2018-Jun-13 07:30N 38°02' W 122°08'2 4.1
2018-Jun-13 06:59N 38°03' W 122°10'610.1
2018-Jun-13 06:23N 38°03' W 122°18'6 9.0
2018-Jun-13 05:44N 38°01' W 122°25'311.7
2018-Jun-13 05:27N 37°58' W 122°27'511.1
2018-Jun-13 05:00N 37°53' W 122°26'611.1
2018-Jun-13 04:30N 37°48' W 122°23'5 9.2
2018-Jun-13 03:59N 37°43' W 122°21'1 1.2
2018-Jun-13 03:30N 37°43' W 122°20'1 1.4
2018-Jun-13 03:00N 37°44' W 122°20'5 9.8
2018-Jun-13 02:30N 37°49' W 122°20'0 0.4
2018-Jun-13 02:00N 37°49' W 122°20'0 0.0
2018-Jun-13 01:30N 37°49' W 122°20'0 0.0
2018-Jun-13 01:00N 37°49' W 122°20'0 0.0
2018-Jun-13 00:30N 37°49' W 122°20'0 0.0
2018-Jun-13 00:00N 37°49' W 122°20'0 0.1
2018-Jun-12 23:30N 37°49' W 122°20'1 1.0
2018-Jun-12 23:00N 37°48' W 122°21'1 2.3
2018-Jun-12 22:30N 37°48' W 122°19'1 2.3
2018-Jun-12 22:00N 37°48' W 122°18'1 1.3
2018-Jun-12 21:30N 37°48' W 122°19'3 6.4
2018-Jun-12 21:00N 37°48' W 122°23'1 2.2
2018-Jun-12 20:30N 37°48' W 122°24'0 0.0
2018-Jun-12 20:00N 37°48' W 122°24'0 0.0
2018-Jun-12 19:30N 37°48' W 122°24'0 0.0
2018-Jun-12 19:00N 37°48' W 122°24'0 0.0
2018-Jun-12 18:30N 37°48' W 122°24'0 0.0
2018-Jun-12 18:00N 37°48' W 122°24'0 0.0
2018-Jun-12 17:30N 37°48' W 122°24'0 0.0
2018-Jun-12 17:00N 37°48' W 122°24'0 0.0
2018-Jun-12 16:30N 37°48' W 122°24'0 0.0
2018-Jun-12 16:00N 37°48' W 122°24'0 0.0
2018-Jun-12 15:30N 37°48' W 122°24'0 0.0
2018-Jun-12 15:00N 37°48' W 122°24'0 0.0
2018-Jun-12 14:30N 37°48' W 122°24'0 0.0
2018-Jun-12 14:00N 37°48' W 122°24'0 0.0
2018-Jun-12 13:30N 37°48' W 122°24'0 0.0
2018-Jun-12 13:00N 37°48' W 122°24'0 0.0
2018-Jun-12 12:30N 37°48' W 122°24'0 0.0
2018-Jun-12 12:00N 37°48' W 122°24'0 0.0
2018-Jun-12 11:30N 37°48' W 122°24'0 0.0
2018-Jun-12 11:00N 37°48' W 122°24'0 0.0
2018-Jun-12 10:30N 37°48' W 122°24'0 0.0
2018-Jun-12 10:00N 37°48' W 122°24'0 0.0
2018-Jun-12 09:30N 37°48' W 122°24'0 0.0
2018-Jun-12 09:00N 37°48' W 122°24'0 0.0
2018-Jun-12 08:30N 37°48' W 122°24'0 0.0
2018-Jun-12 07:58N 37°48' W 122°24'0 0.0
2018-Jun-12 07:30N 37°48' W 122°24'0 0.0
2018-Jun-12 07:00N 37°48' W 122°24'0 0.0
2018-Jun-12 06:30N 37°48' W 122°24'0 0.0
2018-Jun-12 06:00N 37°48' W 122°24'0 0.0
2018-Jun-12 05:30N 37°48' W 122°24'  
Track history (hours):
 
Tides and Currents Weather Stations Pressure Air Temp Water Temp Dewpoint Dewpoint Depression Visibility Wind Speed Wind Dir Waves Ship Positions

Valor

Owner: Crowley Marine Services, Seattle, WA. More information available from US FCC via Universal Licensing System and Coast Guard Vessel Documentation Center.

Last reported at 2018-Jun-22 05:28 UTC. Time now 2018-Jun-22 05:40 UTC.
Position N 37°60' W 122°25'.

Length 8 m; draft 5.5 m.

Type: Tug. MMSI: 367301480.

Date/timePositionNaut miles runAvg speedWind from/ knotsBaromVisibWave heightAir tempDewpointWater temp
2018-Jun-22 05:28N 37°60' W 122°25'4 8.9
2018-Jun-22 05:00N 38°02' W 122°21'4 7.8
2018-Jun-22 04:30N 38°03' W 122°16'0 0.1
2018-Jun-22 04:00N 38°03' W 122°16'0 0.8
2018-Jun-22 03:30N 38°04' W 122°16'710.1
2018-Jun-22 02:47N 38°01' W 122°25'312.2
2018-Jun-22 02:30N 37°58' W 122°27'510.8
2018-Jun-22 02:00N 37°53' W 122°25'4 8.7
2018-Jun-22 01:30N 37°48' W 122°23'4 8.7
2018-Jun-22 01:00N 37°45' W 122°21'2 3.5
2018-Jun-22 00:30N 37°43' W 122°20'0 0.0
2018-Jun-22 00:00N 37°43' W 122°20'611.9
2018-Jun-21 23:30N 37°48' W 122°24'0 0.4
2018-Jun-21 23:00N 37°48' W 122°24'0 0.0
2018-Jun-21 22:30N 37°48' W 122°24'0 0.0
2018-Jun-21 22:01N 37°48' W 122°24'0 0.0
2018-Jun-21 21:30N 37°48' W 122°24'1 1.6
2018-Jun-21 21:00N 37°49' W 122°24'4 8.4
2018-Jun-21 20:30N 37°49' W 122°30'0 0.7
2018-Jun-21 20:00N 37°49' W 122°30'510.0
2018-Jun-21 19:30N 37°51' W 122°25'4 7.8
2018-Jun-21 19:00N 37°55' W 122°25'2 4.9
2018-Jun-21 18:30N 37°55' W 122°22'0 0.5
2018-Jun-21 18:01N 37°55' W 122°22'0 0.3
2018-Jun-21 17:30N 37°55' W 122°22'0 0.0
2018-Jun-21 16:59N 37°55' W 122°22'0 0.0
2018-Jun-21 16:30N 37°55' W 122°22'0 0.7
2018-Jun-21 16:00N 37°54' W 122°22'4 7.2
2018-Jun-21 15:30N 37°56' W 122°26'4 8.2
2018-Jun-21 14:59N 38°00' W 122°24'4 8.1
2018-Jun-21 14:30N 38°03' W 122°20'5 8.2
2018-Jun-21 13:50N 38°04' W 122°13'4 2.5
2018-Jun-21 12:16N 38°02' W 122°09'0 0.8
2018-Jun-21 11:59N 38°02' W 122°09'1 0.1
2018-Jun-21 07:39N 38°02' W 122°08'1 3.6
2018-Jun-21 07:30N 38°02' W 122°08'0 0.0
2018-Jun-21 07:00N 38°02' W 122°08'1 1.7
2018-Jun-21 06:30N 38°02' W 122°09'1 0.2
2018-Jun-21 02:35N 38°02' W 122°08'0 0.6
2018-Jun-21 02:19N 38°02' W 122°08'0 0.0
2018-Jun-21 02:00N 38°02' W 122°08'0 0.0
2018-Jun-21 01:28N 38°02' W 122°08'3 3.3
2018-Jun-21 00:41N 38°03' W 122°11'210.8
2018-Jun-21 00:27N 38°04' W 122°14'712.4
2018-Jun-20 23:53N 38°02' W 122°22'513.2
2018-Jun-20 23:28N 37°58' W 122°27'613.2
2018-Jun-20 23:00N 37°52' W 122°25'610.9
2018-Jun-20 22:30N 37°46' W 122°22'3 5.1
2018-Jun-20 22:00N 37°44' W 122°21'1 2.5
2018-Jun-20 21:30N 37°45' W 122°22'3 6.8
2018-Jun-20 21:00N 37°48' W 122°24'0 0.1
2018-Jun-20 20:30N 37°48' W 122°24'0 0.0
2018-Jun-20 20:00N 37°48' W 122°24'0 0.0
2018-Jun-20 19:30N 37°48' W 122°24'0 0.0
2018-Jun-20 19:00N 37°48' W 122°24'0 0.0
2018-Jun-20 18:30N 37°48' W 122°24'0 0.0
2018-Jun-20 18:00N 37°48' W 122°24'0 0.0
2018-Jun-20 17:30N 37°48' W 122°24'1 1.4
2018-Jun-20 17:00N 37°49' W 122°24'4 8.9
2018-Jun-20 16:30N 37°53' W 122°25'610.8
2018-Jun-20 15:59N 37°59' W 122°25'5 9.8
2018-Jun-20 15:30N 38°02' W 122°21'10 2.4
2018-Jun-20 11:17N 38°02' W 122°08'2 4.0
2018-Jun-20 10:52N 38°02' W 122°10'3 7.9
2018-Jun-20 10:30N 38°04' W 122°14'4 8.4
2018-Jun-20 10:00N 38°03' W 122°19'5 8.9
2018-Jun-20 09:25N 38°01' W 122°25'5 8.9
2018-Jun-20 08:53N 37°56' W 122°27'3 8.2
2018-Jun-20 08:30N 37°53' W 122°26'3 5.6
2018-Jun-20 08:00N 37°50' W 122°27'4 7.7
2018-Jun-20 07:31N 37°48' W 122°31'1 1.6
2018-Jun-20 07:00N 37°48' W 122°30'1 1.7
2018-Jun-20 06:30N 37°49' W 122°29'4 8.0
2018-Jun-20 06:00N 37°49' W 122°24'0 0.9
2018-Jun-20 05:30N 37°48' W 122°24'0 0.0
2018-Jun-20 05:00N 37°48' W 122°24'0 0.0
2018-Jun-20 04:30N 37°48' W 122°24'2 4.9
2018-Jun-20 04:00N 37°51' W 122°24'5 9.4
2018-Jun-20 03:30N 37°55' W 122°25'0 0.6
2018-Jun-20 03:00N 37°55' W 122°25'3 5.6
2018-Jun-20 02:30N 37°52' W 122°25'3 6.4
2018-Jun-20 02:00N 37°50' W 122°28'3 5.9
2018-Jun-20 01:30N 37°48' W 122°30'0 0.6
2018-Jun-20 01:00N 37°48' W 122°30'1 2.9
2018-Jun-20 00:30N 37°49' W 122°28'3 6.7
2018-Jun-20 00:00N 37°49' W 122°24'1 1.4
2018-Jun-19 23:28N 37°48' W 122°24'0 0.0
2018-Jun-19 23:00N 37°48' W 122°24'0 0.0
2018-Jun-19 22:30N 37°48' W 122°24'0 0.0
2018-Jun-19 22:00N 37°48' W 122°24'0 0.0
2018-Jun-19 21:30N 37°48' W 122°24'0 0.0
2018-Jun-19 21:00N 37°48' W 122°24'0 0.0
2018-Jun-19 20:30N 37°48' W 122°24'0 0.0
2018-Jun-19 20:00N 37°48' W 122°24'0 0.0
2018-Jun-19 19:30N 37°48' W 122°24'2 3.3
2018-Jun-19 19:00N 37°50' W 122°24'5 9.6
2018-Jun-19 18:28N 37°55' W 122°25'510.2
2018-Jun-19 17:59N 37°60' W 122°25'9 2.2
2018-Jun-19 13:55N 38°03' W 122°15'1 0.3
2018-Jun-19 10:39N 38°04' W 122°14'311.9
2018-Jun-19 10:25N 38°03' W 122°17'2 3.7
2018-Jun-19 09:53N 38°03' W 122°15'0 0.0
2018-Jun-19 09:30N 38°03' W 122°15'0 0.0
2018-Jun-19 08:41N 38°03' W 122°15'0 0.0
2018-Jun-19 08:13N 38°03' W 122°15'0 0.0
2018-Jun-19 08:00N 38°03' W 122°15'0 0.0
2018-Jun-19 07:29N 38°03' W 122°15'0 0.0
2018-Jun-19 06:59N 38°03' W 122°15'0 0.0
2018-Jun-19 06:30N 38°03' W 122°15'0 0.0
2018-Jun-19 05:47N 38°03' W 122°15'0 0.0
2018-Jun-19 04:13N 38°03' W 122°15'0 0.0
2018-Jun-19 04:00N 38°03' W 122°15'0 0.0
2018-Jun-19 03:30N 38°03' W 122°15'0 0.0
2018-Jun-19 02:52N 38°03' W 122°15'3 7.2
2018-Jun-19 02:29N 38°03' W 122°18'5 9.8
2018-Jun-19 01:56N 38°01' W 122°24'4 9.5
2018-Jun-19 01:29N 37°56' W 122°26'510.2
2018-Jun-19 01:00N 37°52' W 122°24'4 8.6
2018-Jun-19 00:30N 37°48' W 122°21'1 2.4
2018-Jun-19 00:00N 37°48' W 122°19'2 4.9
2018-Jun-18 23:30N 37°48' W 122°22'0 1.0
2018-Jun-18 23:01N 37°47' W 122°23'1 2.5
2018-Jun-18 22:30N 37°48' W 122°24'3 6.1
2018-Jun-18 22:00N 37°46' W 122°21'3 6.7
2018-Jun-18 21:30N 37°43' W 122°20'1 2.2
2018-Jun-18 21:00N 37°44' W 122°21'510.6
2018-Jun-18 20:30N 37°48' W 122°24'5 9.8
2018-Jun-18 20:00N 37°48' W 122°30'1 1.2
2018-Jun-18 19:30N 37°48' W 122°30'0 0.1
2018-Jun-18 19:00N 37°48' W 122°30'1 2.5
2018-Jun-18 18:30N 37°49' W 122°29'4 7.6
2018-Jun-18 18:00N 37°49' W 122°24'0 1.0
2018-Jun-18 17:30N 37°48' W 122°24'0 0.0
2018-Jun-18 16:58N 37°48' W 122°24'0 0.0
2018-Jun-18 16:30N 37°48' W 122°24'0 0.0
2018-Jun-18 15:59N 37°48' W 122°24'0 0.0
2018-Jun-18 15:30N 37°48' W 122°24'0 0.0
2018-Jun-18 15:00N 37°48' W 122°24'0 0.0
2018-Jun-18 14:30N 37°48' W 122°24'0 0.0
2018-Jun-18 14:00N 37°48' W 122°24'0 0.0
2018-Jun-18 13:28N 37°48' W 122°24'0 0.0
2018-Jun-18 12:50N 37°48' W 122°24'0 0.0
2018-Jun-18 12:27N 37°48' W 122°24'0 0.0
2018-Jun-18 11:57N 37°48' W 122°24'0 0.0
2018-Jun-18 11:24N 37°48' W 122°24'0 0.0
2018-Jun-18 10:58N 37°48' W 122°24'0 0.0
2018-Jun-18 10:30N 37°48' W 122°24'0 0.0
2018-Jun-18 10:00N 37°48' W 122°24'0 0.9
2018-Jun-18 09:30N 37°48' W 122°23'2 4.3
2018-Jun-18 08:59N 37°48' W 122°20'0 0.3
2018-Jun-18 08:30N 37°48' W 122°20'3 5.6
2018-Jun-18 08:01N 37°48' W 122°24'0 0.1
2018-Jun-18 07:30N 37°48' W 122°24'0 0.0
2018-Jun-18 06:57N 37°48' W 122°24'0 0.0
2018-Jun-18 06:26N 37°48' W 122°24'0 0.0
2018-Jun-18 05:59N 37°48' W 122°24'0 0.0
2018-Jun-18 05:29N 37°48' W 122°24'0 0.0
2018-Jun-18 04:24N 37°48' W 122°24'0 0.0
2018-Jun-18 03:58N 37°48' W 122°24'0 0.0
2018-Jun-18 03:29N 37°48' W 122°24'0 0.0
2018-Jun-18 03:00N 37°48' W 122°24'0 0.0
2018-Jun-18 02:30N 37°48' W 122°24'0 0.0
2018-Jun-18 02:00N 37°48' W 122°24'0 0.0
2018-Jun-18 01:30N 37°48' W 122°24'0 0.0
2018-Jun-18 01:00N 37°48' W 122°24'0 0.0
2018-Jun-18 00:30N 37°48' W 122°24'0 0.0
2018-Jun-18 00:00N 37°48' W 122°24'0 0.0
2018-Jun-17 23:30N 37°48' W 122°24'0 0.0
2018-Jun-17 23:00N 37°48' W 122°24'0 0.0
2018-Jun-17 22:29N 37°48' W 122°24'4 8.7
2018-Jun-17 22:00N 37°49' W 122°29'1 2.6
2018-Jun-17 21:30N 37°49' W 122°31'2 4.7
2018-Jun-17 21:00N 37°50' W 122°28'3 6.9
2018-Jun-17 20:30N 37°52' W 122°25'3 6.7
2018-Jun-17 20:00N 37°55' W 122°25'0 0.1
2018-Jun-17 19:28N 37°56' W 122°25'0 0.7
2018-Jun-17 19:00N 37°55' W 122°25'0 0.1
2018-Jun-17 18:13N 37°55' W 122°25'0 0.0
2018-Jun-17 15:08N 37°55' W 122°25'0 0.0
2018-Jun-17 13:56N 37°55' W 122°25'4 8.9
2018-Jun-17 13:27N 37°60' W 122°25'510.3
2018-Jun-17 12:56N 38°03' W 122°20'5 1.5
2018-Jun-17 09:40N 38°04' W 122°13'1 0.6
2018-Jun-17 07:42N 38°03' W 122°15'1 0.6
2018-Jun-17 06:02N 38°04' W 122°13'3 1.0
2018-Jun-17 03:21N 38°03' W 122°10'2 1.7
2018-Jun-17 02:19N 38°02' W 122°08'0 0.9
2018-Jun-17 01:59N 38°02' W 122°08'0 0.0
2018-Jun-16 05:41N 38°02' W 122°08'1 2.8
2018-Jun-16 05:30N 38°02' W 122°09'0 0.3
2018-Jun-16 05:00N 38°02' W 122°09'2 0.2
2018-Jun-15 21:30N 38°03' W 122°11'6 8.8
2018-Jun-15 20:50N 38°03' W 122°18'6 9.9
2018-Jun-15 20:14N 38°00' W 122°24'410.3
2018-Jun-15 19:49N 37°56' W 122°27'3 9.6
2018-Jun-15 19:30N 37°54' W 122°26'3 6.0
2018-Jun-15 19:00N 37°51' W 122°27'4 7.3
2018-Jun-15 18:30N 37°48' W 122°30'0 0.7
2018-Jun-15 18:00N 37°48' W 122°30'2 3.0
2018-Jun-15 17:30N 37°49' W 122°28'3 6.1
2018-Jun-15 17:00N 37°49' W 122°24'1 1.1
2018-Jun-15 16:30N 37°48' W 122°24'0 0.0
2018-Jun-15 16:00N 37°48' W 122°24'0 0.0
2018-Jun-15 15:30N 37°48' W 122°24'0 0.0
2018-Jun-15 14:59N 37°48' W 122°24'0 0.0
2018-Jun-15 14:30N 37°48' W 122°24'0 0.2
2018-Jun-15 14:00N 37°48' W 122°24'0 0.6
2018-Jun-15 13:30N 37°49' W 122°24'2 3.2
2018-Jun-15 13:00N 37°49' W 122°26'2 3.6
2018-Jun-15 12:30N 37°48' W 122°24'0 0.0
2018-Jun-15 12:00N 37°48' W 122°24'0 0.0
2018-Jun-15 11:30N 37°48' W 122°24'0 0.0
2018-Jun-15 11:00N 37°48' W 122°24'0 0.0
2018-Jun-15 10:26N 37°48' W 122°24'0 0.0
2018-Jun-15 10:00N 37°48' W 122°24'0 0.1
2018-Jun-15 09:30N 37°48' W 122°24'5 8.8
2018-Jun-15 09:00N 37°53' W 122°25'3 5.7
2018-Jun-15 08:28N 37°56' W 122°25'0 0.0
2018-Jun-15 08:00N 37°56' W 122°25'1 1.5
2018-Jun-15 07:30N 37°55' W 122°25'1 1.3
2018-Jun-15 07:00N 37°54' W 122°25'0 1.0
2018-Jun-15 06:30N 37°54' W 122°25'3 6.3
2018-Jun-15 06:00N 37°57' W 122°26'3 6.4
2018-Jun-15 05:30N 37°60' W 122°25'3 6.7
2018-Jun-15 05:00N 38°02' W 122°21'6 8.6
2018-Jun-15 04:20N 38°04' W 122°14'510.0
2018-Jun-15 03:51N 38°02' W 122°09'0 1.4
2018-Jun-15 03:30N 38°02' W 122°08'0 0.0
2018-Jun-15 02:46N 38°02' W 122°08'0 0.0
2018-Jun-15 02:25N 38°02' W 122°08'1 0.6
2018-Jun-15 01:35N 38°02' W 122°08'0 0.0
2018-Jun-15 01:27N 38°02' W 122°08'0 0.0
2018-Jun-15 00:54N 38°02' W 122°08'0 0.0
2018-Jun-15 00:30N 38°02' W 122°08'0 0.0
2018-Jun-14 23:57N 38°02' W 122°08'0 0.0
2018-Jun-14 23:30N 38°02' W 122°08'0 0.0
2018-Jun-14 22:57N 38°02' W 122°08'1 0.0
2018-Jun-13 16:30N 38°02' W 122°09'1 0.2
2018-Jun-13 10:58N 38°02' W 122°08'0 0.0
2018-Jun-13 09:55N 38°02' W 122°08'0 0.0
2018-Jun-13 09:30N 38°02' W 122°08'0 0.0
2018-Jun-13 09:00N 38°02' W 122°08'1 0.9
2018-Jun-13 08:26N 38°02' W 122°08'0 0.0
2018-Jun-13 07:55N 38°02' W 122°08'0 0.2
2018-Jun-13 07:30N 38°02' W 122°08'2 4.1
2018-Jun-13 06:59N 38°03' W 122°10'610.1
2018-Jun-13 06:23N 38°03' W 122°18'6 9.0
2018-Jun-13 05:44N 38°01' W 122°25'311.7
2018-Jun-13 05:27N 37°58' W 122°27'511.1
2018-Jun-13 05:00N 37°53' W 122°26'611.1
2018-Jun-13 04:30N 37°48' W 122°23'5 9.2
2018-Jun-13 03:59N 37°43' W 122°21'1 1.2
2018-Jun-13 03:30N 37°43' W 122°20'1 1.4
2018-Jun-13 03:00N 37°44' W 122°20'5 9.8
2018-Jun-13 02:30N 37°49' W 122°20'0 0.4
2018-Jun-13 02:00N 37°49' W 122°20'0 0.0
2018-Jun-13 01:30N 37°49' W 122°20'0 0.0
2018-Jun-13 01:00N 37°49' W 122°20'0 0.0
2018-Jun-13 00:30N 37°49' W 122°20'0 0.0
2018-Jun-13 00:00N 37°49' W 122°20'0 0.1
2018-Jun-12 23:30N 37°49' W 122°20'1 1.0
2018-Jun-12 23:00N 37°48' W 122°21'1 2.3
2018-Jun-12 22:30N 37°48' W 122°19'1 2.3
2018-Jun-12 22:00N 37°48' W 122°18'1 1.3
2018-Jun-12 21:30N 37°48' W 122°19'3 6.4
2018-Jun-12 21:00N 37°48' W 122°23'1 2.2
2018-Jun-12 20:30N 37°48' W 122°24'0 0.0
2018-Jun-12 20:00N 37°48' W 122°24'0 0.0
2018-Jun-12 19:30N 37°48' W 122°24'0 0.0
2018-Jun-12 19:00N 37°48' W 122°24'0 0.0
2018-Jun-12 18:30N 37°48' W 122°24'0 0.0
2018-Jun-12 18:00N 37°48' W 122°24'0 0.0
2018-Jun-12 17:30N 37°48' W 122°24'0 0.0
2018-Jun-12 17:00N 37°48' W 122°24'0 0.0
2018-Jun-12 16:30N 37°48' W 122°24'0 0.0
2018-Jun-12 16:00N 37°48' W 122°24'0 0.0
2018-Jun-12 15:30N 37°48' W 122°24'0 0.0
2018-Jun-12 15:00N 37°48' W 122°24'0 0.0
2018-Jun-12 14:30N 37°48' W 122°24'0 0.0
2018-Jun-12 14:00N 37°48' W 122°24'0 0.0
2018-Jun-12 13:30N 37°48' W 122°24'0 0.0
2018-Jun-12 13:00N 37°48' W 122°24'0 0.0
2018-Jun-12 12:30N 37°48' W 122°24'0 0.0
2018-Jun-12 12:00N 37°48' W 122°24'0 0.0
2018-Jun-12 11:30N 37°48' W 122°24'0 0.0
2018-Jun-12 11:00N 37°48' W 122°24'0 0.0
2018-Jun-12 10:30N 37°48' W 122°24'0 0.0
2018-Jun-12 10:00N 37°48' W 122°24'0 0.0
2018-Jun-12 09:30N 37°48' W 122°24'0 0.0
2018-Jun-12 09:00N 37°48' W 122°24'0 0.0
2018-Jun-12 08:30N 37°48' W 122°24'0 0.0
2018-Jun-12 07:58N 37°48' W 122°24'0 0.0
2018-Jun-12 07:30N 37°48' W 122°24'0 0.0
2018-Jun-12 07:00N 37°48' W 122°24'0 0.0
2018-Jun-12 06:30N 37°48' W 122°24'0 0.0
2018-Jun-12 06:00N 37°48' W 122°24'0 0.0
2018-Jun-12 05:30N 37°48' W 122°24'  

Dump ship's entire track history